Hyalite Weather Station

This weather station provides temperature, wind speed, gust or max wind speed, and wind direction at 9982ft near the summit of Flanders Mountain. This data can be used with temperature and precipitation data from the Shower Falls SNOTEL site. If the data has not been updated recently you can view it directly on datagarrison.com

Elevation
9982ft
Jump to table bottom
Date Time Temperature
deg F
RH, % Wind Speed Wind Gust Wind Direction
03/04/24 20:00 1.9 83 19 28 W - 251
03/04/24 19:00 2.0 83 15 25 W - 251
03/04/24 18:00 2.2 83 12 21 SW - 239
03/04/24 17:00 3.2 83 13 23 SW - 233
03/04/24 16:00 3.7 83 6 13 W - 263
03/04/24 15:00 5.2 70 9 19 SW - 241
03/04/24 14:00 5.0 64 12 20 SW - 240
03/04/24 13:00 6.4 53 13 23 SW - 232
03/04/24 12:00 6.1 55 14 23 SW - 232
03/04/24 11:00 4.7 57 17 28 SW - 230
03/04/24 10:00 1.9 71 17 27 SW - 226
03/04/24 09:00 0.2 73 15 27 SW - 227
03/04/24 08:00 -0.5 78 13 20 SW - 225
03/04/24 07:00 -1.3 81 16 26 SW - 233
03/04/24 06:00 -0.9 81 15 26 SW - 234
03/04/24 05:00 -0.9 83 13 26 SW - 227
03/04/24 04:00 -0.3 81 10 20 SW - 227
03/04/24 03:00 0.2 76 9 19 SW - 229
03/04/24 02:00 1.0 68 14 23 SW - 226
03/04/24 01:00 1.3 66 15 25 SW - 229
03/04/24 00:00 1.6 62 16 25 SW - 229
03/03/24 23:00 1.4 54 12 20 SW - 233
03/03/24 22:00 1.6 49 12 17 SW - 232
03/03/24 21:00 1.6 55 11 17 SW - 240
03/03/24 20:00 2.0 58 11 18 SW - 247
03/03/24 19:00 2.4 59 10 20 SW - 247
03/03/24 18:00 4.2 57 7 14 W - 248
03/03/24 17:00 5.6 70 7 14 SW - 246
03/03/24 16:00 6.7 75 7 13 W - 253
03/03/24 15:00 7.3 74 6 13 W - 281
03/03/24 14:00 7.4 67 7 13 SW - 247
03/03/24 13:00 5.2 72 8 14 SW - 237
03/03/24 12:00 6.5 67 10 19 SW - 244
03/03/24 11:00 4.0 75 10 17 SW - 243
03/03/24 10:00 1.6 79 9 17 W - 250
03/03/24 09:00 0.2 83 8 15 W - 248
03/03/24 08:00 -0.9 83 13 24 SW - 240
03/03/24 07:00 -1.5 83 15 24 SW - 244
03/03/24 06:00 -1.3 83 18 28 SW - 247
03/03/24 05:00 0.2 83 18 28 W - 253
03/03/24 04:00 1.5 83 18 33 SW - 244
03/03/24 03:00 2.1 84 22 36 SW - 240
03/03/24 02:00 2.8 83 20 32 SW - 239
03/03/24 01:00 3.1 83 20 31 SW - 246
03/03/24 00:00 3.4 83 21 46 SW - 239
03/02/24 23:00 3.9 75 37 58 SW - 227
03/02/24 22:00 4.5 83 30 54 SW - 219
03/02/24 21:00 5.5 83 24 44 SW - 215
03/02/24 20:00 7.8 79 20 40 S - 198
03/02/24 19:00 11.3 70 22 33 SW - 212